Terminal Aerodrome Forecast
Issued by NWS

Home | Current Version | Previous Version | Text Only | Print | Product List | Glossary On
Versions: 1 2 3 4 5 6 7 8 9 10 11 12 13 14 15 16 17
000
FTUS42 TJSJ 010547
TAFJSJ
TAF
TJSJ 010547Z 0106/0206 11005KT P6SM VCSH FEW022 SCT030
     FM011430 07015KT P6SM -RA FEW030 SCT050 BKN100
     FM011730 07015G25KT P6SM VCTS SCT025CB BKN050
     FM012200 09010KT 5SM RA SCT022 SCT035 BKN070=

USA.gov is the U.S. government's official web portal to all federal, state and local government web resources and services.